createdAt,value
2019-02-28T00:01:29.224Z,96007.08
2019-02-28T00:03:58.035Z,96004.64
2019-02-28T00:06:25.649Z,96007.95
2019-02-28T00:08:53.691Z,96006.33
2019-02-28T00:11:21.350Z,96000.70
2019-02-28T00:13:48.870Z,95996.09
2019-02-28T00:16:16.353Z,95986.30
2019-02-28T00:18:43.973Z,95981.79
2019-02-28T00:21:11.500Z,95986.28
2019-02-28T00:23:39.070Z,95983.41
2019-02-28T00:26:11.378Z,95980.62
2019-02-28T00:28:35.911Z,95980.67
2019-02-28T00:31:03.493Z,95980.84
2019-02-28T00:33:31.620Z,95985.73
2019-02-28T00:35:59.209Z,95975.27
2019-02-28T00:38:29.452Z,95978.48
2019-02-28T00:40:56.042Z,95977.17
2019-02-28T00:43:25.152Z,95976.01
2019-02-28T00:45:52.879Z,95983.05
2019-02-28T00:48:21.677Z,95977.46
2019-02-28T00:50:49.776Z,95975.42
2019-02-28T00:53:17.233Z,95974.37
2019-02-28T00:55:45.880Z,95973.70
2019-02-28T00:58:13.530Z,95965.59
2019-02-28T01:00:41.089Z,95966.21
2019-02-28T01:03:08.564Z,95965.13
2019-02-28T01:05:36.654Z,95965.08
2019-02-28T01:08:04.255Z,95966.52
2019-02-28T01:10:31.722Z,95958.55
2019-02-28T01:12:59.194Z,95958.48
2019-02-28T01:15:26.675Z,95953.77
2019-02-28T01:17:54.152Z,95949.89
2019-02-28T01:20:21.598Z,95946.75
2019-02-28T01:22:49.748Z,95940.63
2019-02-28T01:25:17.350Z,95938.06
2019-02-28T01:27:44.813Z,95941.49
2019-02-28T01:30:12.402Z,95937.52
2019-02-28T01:32:39.922Z,95928.01
2019-02-28T01:35:07.470Z,95926.33
2019-02-28T01:37:34.925Z,95920.11
2019-02-28T01:40:04.386Z,95918.93
2019-02-28T01:42:31.875Z,95911.75
2019-02-28T01:44:59.355Z,95907.03
2019-02-28T01:47:26.870Z,95901.30
2019-02-28T01:49:57.767Z,95894.89
2019-02-28T01:52:23.705Z,95893.45
2019-02-28T01:54:51.210Z,95889.74
2019-02-28T01:57:18.680Z,95887.95
2019-02-28T01:59:46.140Z,95893.36
2019-02-28T02:02:13.630Z,95888.91
2019-02-28T02:04:43.168Z,95883.67
2019-02-28T02:07:10.463Z,95877.34
2019-02-28T02:09:37.975Z,95871.74
2019-02-28T02:12:05.399Z,95869.44
2019-02-28T02:14:32.865Z,95869.73
2019-02-28T02:17:01.073Z,95866.88
2019-02-28T02:19:29.263Z,95861.75
2019-02-28T02:21:56.730Z,95864.57
2019-02-28T02:24:27.584Z,95856.47
2019-02-28T02:26:55.349Z,95855.97
2019-02-28T02:29:22.794Z,95856.23
2019-02-28T02:31:50.363Z,95849.73
2019-02-28T02:34:17.947Z,95846.34
2019-02-28T02:36:52.964Z,95850.38
2019-02-28T02:39:17.563Z,95851.80
2019-02-28T02:41:44.223Z,95841.32
2019-02-28T02:44:11.712Z,95840.83
2019-02-28T02:46:39.209Z,95839.03
2019-02-28T02:49:06.690Z,95838.80
2019-02-28T02:51:34.197Z,95833.95
2019-02-28T02:54:01.654Z,95835.50
2019-02-28T02:56:29.146Z,95838.59
2019-02-28T02:59:01.199Z,95840.91
2019-02-28T03:01:26.114Z,95835.67
2019-02-28T03:03:53.568Z,95833.98
2019-02-28T03:06:21.088Z,95835.02
2019-02-28T03:08:48.550Z,95829.81
2019-02-28T03:11:16.071Z,95828.45
2019-02-28T03:13:44.174Z,95818.28
2019-02-28T03:16:11.910Z,95831.45
2019-02-28T03:18:39.390Z,95817.37
2019-02-28T03:21:06.851Z,95822.41
2019-02-28T03:23:39.814Z,95817.20
2019-02-28T03:26:06.945Z,95818.00
2019-02-28T03:28:33.356Z,95812.69
2019-02-28T03:31:12.035Z,95808.44
2019-02-28T03:33:30.368Z,95810.38
2019-02-28T03:35:57.809Z,95807.82
2019-02-28T03:38:25.292Z,95810.35
2019-02-28T03:40:52.810Z,95804.10
2019-02-28T03:43:20.249Z,95801.59
2019-02-28T03:45:47.710Z,95800.59
2019-02-28T03:48:15.200Z,95794.55
2019-02-28T03:50:42.676Z,95795.56
2019-02-28T03:53:10.135Z,95794.73
2019-02-28T03:55:40.784Z,95798.58
2019-02-28T03:58:06.991Z,95798.27
2019-02-28T04:00:35.033Z,95793.49
2019-02-28T04:03:02.643Z,95796.14
2019-02-28T04:05:30.654Z,95797.14
2019-02-28T04:07:58.181Z,95800.80
2019-02-28T04:10:25.690Z,95797.27
2019-02-28T04:12:53.215Z,95792.77
2019-02-28T04:15:20.917Z,95801.92
2019-02-28T04:17:48.390Z,95797.89
2019-02-28T04:20:16.331Z,95791.48
2019-02-28T04:22:43.767Z,95797.78
2019-02-28T04:25:11.410Z,95793.84
2019-02-28T04:27:40.226Z,95795.80
2019-02-28T04:30:08.635Z,95798.62
2019-02-28T04:32:36.069Z,95795.06
2019-02-28T04:35:03.730Z,95795.97
2019-02-28T04:37:31.161Z,95793.16
2019-02-28T04:39:58.590Z,95795.73
2019-02-28T04:42:26.073Z,95797.09
2019-02-28T04:44:53.543Z,95796.19
2019-02-28T04:47:21.133Z,95795.64
2019-02-28T04:49:48.629Z,95789.84
2019-02-28T04:52:16.097Z,95796.31
2019-02-28T04:54:43.571Z,95794.57
2019-02-28T04:57:11.094Z,95783.15
2019-02-28T04:59:38.536Z,95790.45
2019-02-28T05:02:06.128Z,95779.27
2019-02-28T05:04:36.113Z,95778.95
2019-02-28T05:07:03.259Z,95778.11
2019-02-28T05:09:30.718Z,95776.58
2019-02-28T05:11:58.215Z,95779.38
2019-02-28T05:14:25.651Z,95773.98
2019-02-28T05:16:53.148Z,95768.84
2019-02-28T05:19:20.618Z,95779.91
2019-02-28T05:21:50.599Z,95779.27
2019-02-28T05:24:17.510Z,95775.41
2019-02-28T05:26:44.986Z,95772.55
2019-02-28T05:29:13.064Z,95773.44
2019-02-28T05:31:40.638Z,95775.70
2019-02-28T05:34:08.107Z,95773.95
2019-02-28T05:36:37.913Z,95779.06
2019-02-28T05:39:05.760Z,95775.45
2019-02-28T05:41:33.223Z,95779.42
2019-02-28T05:44:03.338Z,95778.48
2019-02-28T05:46:30.059Z,95780.64
2019-02-28T05:48:57.549Z,95772.31
2019-02-28T05:51:25.782Z,95781.59
2019-02-28T05:53:53.349Z,95783.04
2019-02-28T05:56:21.909Z,95785.01
2019-02-28T05:58:52.494Z,95791.55
2019-02-28T06:01:18.867Z,95777.83
2019-02-28T06:03:46.325Z,95786.58
2019-02-28T06:06:13.797Z,95786.77
2019-02-28T06:08:41.348Z,95788.64
2019-02-28T06:11:08.854Z,95787.53
2019-02-28T06:13:37.220Z,95791.41
2019-02-28T06:16:04.745Z,95783.94
2019-02-28T06:18:33.506Z,95787.53
2019-02-28T06:21:01.250Z,95792.14
2019-02-28T06:23:28.698Z,95789.49
2019-02-28T06:25:59.329Z,95785.67
2019-02-28T06:28:27.625Z,95790.60
2019-02-28T06:30:55.032Z,95796.31
2019-02-28T06:33:22.666Z,95797.62
2019-02-28T06:35:53.693Z,95791.78
2019-02-28T06:38:19.904Z,95796.55
2019-02-28T06:40:47.479Z,95791.71
2019-02-28T06:43:14.959Z,95793.45
2019-02-28T06:45:42.490Z,95790.06
2019-02-28T06:48:09.989Z,95800.09
2019-02-28T06:50:37.450Z,95796.56
2019-02-28T06:53:04.887Z,95798.23
2019-02-28T06:55:32.407Z,95789.90
2019-02-28T06:57:59.885Z,95802.53
2019-02-28T07:00:27.410Z,95801.30
2019-02-28T07:02:54.895Z,95801.66
2019-02-28T07:05:25.751Z,95808.89
2019-02-28T07:07:51.751Z,95802.11
2019-02-28T07:10:19.273Z,95803.88
2019-02-28T07:12:46.775Z,95805.75
2019-02-28T07:15:14.410Z,95796.85
2019-02-28T07:17:42.603Z,95804.02
2019-02-28T07:20:11.789Z,95790.45
2019-02-28T07:22:40.109Z,95799.56
2019-02-28T07:25:09.562Z,95796.48
2019-02-28T07:27:37.473Z,95793.00
2019-02-28T07:30:06.900Z,95790.91
2019-02-28T07:32:35.043Z,95785.91
2019-02-28T07:35:02.640Z,95794.84
2019-02-28T07:37:30.097Z,95790.75
2019-02-28T07:39:57.591Z,95776.63
2019-02-28T07:42:25.023Z,95784.68
2019-02-28T07:44:53.724Z,95782.39
2019-02-28T07:47:21.372Z,95773.22
2019-02-28T07:49:50.178Z,95778.77
2019-02-28T07:52:17.952Z,95770.20
2019-02-28T07:54:47.434Z,95765.24
2019-02-28T07:57:17.163Z,95764.48
2019-02-28T07:59:44.293Z,95763.06
2019-02-28T08:02:11.774Z,95761.19
2019-02-28T08:04:39.249Z,95757.50
2019-02-28T08:07:06.750Z,95752.52
2019-02-28T08:09:36.754Z,95750.61
2019-02-28T08:12:04.017Z,95753.34
2019-02-28T08:14:31.494Z,95751.32
2019-02-28T08:16:59.002Z,95747.73
2019-02-28T08:19:27.961Z,95753.48
2019-02-28T08:21:55.708Z,95762.61
2019-02-28T08:24:23.216Z,95751.95
2019-02-28T08:26:53.499Z,95741.70
2019-02-28T08:29:20.151Z,95742.50
2019-02-28T08:31:47.627Z,95737.84
2019-02-28T08:34:15.110Z,95725.21
2019-02-28T08:36:43.789Z,95717.37
2019-02-28T08:39:17.450Z,95727.88
2019-02-28T08:41:44.954Z,95727.95
2019-02-28T08:44:12.474Z,95724.20
2019-02-28T08:46:39.970Z,95712.20
2019-02-28T08:49:07.569Z,95723.98
2019-02-28T08:51:35.410Z,95722.94
2019-02-28T08:54:02.853Z,95721.92
2019-02-28T08:56:32.203Z,95724.84
2019-02-28T08:58:59.722Z,95723.95
2019-02-28T09:01:27.214Z,95715.90
2019-02-28T09:03:54.692Z,95726.45
2019-02-28T09:06:22.146Z,95705.62
2019-02-28T09:08:49.678Z,95700.53
2019-02-28T09:11:20.634Z,95685.70
2019-02-28T09:13:46.550Z,95681.89
2019-02-28T09:16:16.239Z,95696.22
2019-02-28T09:18:44.821Z,95676.39
2019-02-28T09:21:12.412Z,95677.76
2019-02-28T09:23:40.036Z,95666.89
2019-02-28T09:26:07.541Z,95657.77
2019-02-28T09:28:35.079Z,95646.09
2019-02-28T09:31:04.933Z,95629.19
2019-02-28T09:33:32.302Z,95646.12
2019-02-28T09:35:59.833Z,95633.00
2019-02-28T09:38:27.289Z,95628.13
2019-02-28T09:40:54.802Z,95618.37
2019-02-28T09:43:23.939Z,95612.58
2019-02-28T09:45:51.672Z,95603.64
2019-02-28T09:48:19.164Z,95600.50
2019-02-28T09:50:46.822Z,95590.58
2019-02-28T09:53:16.538Z,95598.54
2019-02-28T09:55:43.711Z,95593.25
2019-02-28T09:58:11.225Z,95589.44
2019-02-28T10:00:38.818Z,95597.73
2019-02-28T10:03:06.898Z,95590.77
2019-02-28T10:05:34.554Z,95585.20
2019-02-28T10:08:03.154Z,95596.19
2019-02-28T10:10:30.737Z,95591.28
2019-02-28T10:12:58.211Z,95578.42
2019-02-28T10:15:25.661Z,95573.89
2019-02-28T10:17:53.130Z,95567.38
2019-02-28T10:20:26.280Z,95564.52
2019-02-28T10:22:52.110Z,95561.96
2019-02-28T10:25:19.630Z,95559.30
2019-02-28T10:27:47.091Z,95564.33
2019-02-28T10:30:16.795Z,95552.81
2019-02-28T10:32:44.491Z,95543.30
2019-02-28T10:35:12.034Z,95540.79
2019-02-28T10:37:39.520Z,95541.94
2019-02-28T10:40:08.394Z,95528.11
2019-02-28T10:42:36.982Z,95536.38
2019-02-28T10:45:06.566Z,95536.08
2019-02-28T10:47:34.563Z,95525.50
2019-02-28T10:50:02.093Z,95527.56
2019-02-28T10:52:30.592Z,95513.09
2019-02-28T10:54:58.228Z,95511.02
2019-02-28T10:57:25.758Z,95506.77
2019-02-28T10:59:55.214Z,95504.86
2019-02-28T11:02:22.810Z,95503.27
2019-02-28T11:04:50.397Z,95498.55
2019-02-28T11:07:17.983Z,95491.94
2019-02-28T11:09:45.594Z,95494.55
2019-02-28T11:12:13.058Z,95480.47
2019-02-28T11:14:41.019Z,95482.95
2019-02-28T11:17:13.473Z,95471.04
2019-02-28T11:19:38.163Z,95472.98
2019-02-28T11:22:05.994Z,95476.40
2019-02-28T11:24:33.568Z,95481.14
2019-02-28T11:27:01.082Z,95467.09
2019-02-28T11:29:28.583Z,95462.55
2019-02-28T11:31:56.082Z,95450.34
2019-02-28T11:34:23.980Z,95434.58
2019-02-28T11:36:51.550Z,95438.35
2019-02-28T11:39:19.686Z,95438.73
2019-02-28T11:41:49.264Z,95427.41
2019-02-28T11:44:16.911Z,95421.94
2019-02-28T11:46:44.856Z,95415.72
2019-02-28T11:49:13.666Z,95408.84
2019-02-28T11:51:41.184Z,95415.56
2019-02-28T11:54:12.234Z,95410.09
2019-02-28T11:56:38.061Z,95400.09
2019-02-28T11:59:05.511Z,95400.30
2019-02-28T12:01:33.110Z,95393.08
2019-02-28T12:04:00.670Z,95382.42
2019-02-28T12:06:28.176Z,95370.20
2019-02-28T12:08:55.688Z,95362.16
2019-02-28T12:11:25.071Z,95349.43
2019-02-28T12:13:55.127Z,95351.51
2019-02-28T12:16:21.893Z,95341.50
2019-02-28T12:18:49.404Z,95345.27
2019-02-28T12:21:16.878Z,95344.32
2019-02-28T12:23:44.370Z,95337.17
2019-02-28T12:26:14.352Z,95346.11
2019-02-28T12:28:41.262Z,95347.19
2019-02-28T12:31:08.890Z,95345.72
2019-02-28T12:33:36.425Z,95350.06
2019-02-28T12:36:03.870Z,95340.95
2019-02-28T12:38:31.382Z,95332.85
2019-02-28T12:40:58.917Z,95332.96
2019-02-28T12:43:26.513Z,95326.23
2019-02-28T12:45:56.858Z,95328.80
2019-02-28T12:48:23.755Z,95328.22
2019-02-28T12:50:51.350Z,95319.36
2019-02-28T12:53:24.254Z,95314.70
2019-02-28T12:55:50.003Z,95306.84
2019-02-28T12:58:17.567Z,95306.52
2019-02-28T13:00:45.304Z,95298.09
2019-02-28T13:03:19.329Z,95287.05
2019-02-28T13:05:42.670Z,95283.56
2019-02-28T13:08:10.289Z,95281.59
2019-02-28T13:10:37.848Z,95274.98
2019-02-28T13:13:07.515Z,95284.74
2019-02-28T13:15:35.112Z,95276.98
2019-02-28T13:18:07.535Z,95279.85
2019-02-28T13:20:33.824Z,95275.77
2019-02-28T13:23:01.836Z,95274.27
2019-02-28T13:25:29.339Z,95279.05
2019-02-28T13:27:56.946Z,95276.92
2019-02-28T13:30:24.771Z,95266.54
2019-02-28T13:32:52.568Z,95256.61
2019-02-28T13:35:22.420Z,95257.72
2019-02-28T13:37:49.869Z,95261.08
2019-02-28T13:40:17.449Z,95263.45
2019-02-28T13:42:44.935Z,95261.62
2019-02-28T13:45:20.816Z,95250.22
2019-02-28T13:47:46.242Z,95245.02
2019-02-28T13:50:17.183Z,95240.59
2019-02-28T13:52:44.529Z,95250.25
2019-02-28T13:55:14.348Z,95243.65
2019-02-28T13:57:43.720Z,95234.13
2019-02-28T14:00:19.865Z,95244.50
2019-02-28T14:02:47.333Z,95243.42
2019-02-28T14:05:15.058Z,95226.47
2019-02-28T14:07:43.065Z,95219.88
2019-02-28T14:10:11.685Z,95221.69
2019-02-28T14:12:39.710Z,95229.98
2019-02-28T14:15:09.715Z,95218.96
2019-02-28T14:17:38.055Z,95218.90
2019-02-28T14:20:06.155Z,95220.48
2019-02-28T14:22:34.028Z,95221.45
2019-02-28T14:25:05.168Z,95219.66
2019-02-28T14:27:31.698Z,95219.62
2019-02-28T14:29:59.653Z,95220.85
2019-02-28T14:32:27.736Z,95217.61
2019-02-28T14:34:57.307Z,95207.20
2019-02-28T14:37:25.511Z,95216.90
2019-02-28T14:39:53.246Z,95218.46
2019-02-28T14:42:21.320Z,95211.55
2019-02-28T14:44:49.320Z,95210.16
2019-02-28T14:47:17.379Z,95206.04
2019-02-28T14:49:44.954Z,95208.33
2019-02-28T14:52:14.294Z,95207.92
2019-02-28T14:54:42.043Z,95200.67
2019-02-28T14:57:13.379Z,95205.96
2019-02-28T14:59:39.910Z,95210.80
2019-02-28T15:02:07.560Z,95191.34
2019-02-28T15:04:35.096Z,95198.48
2019-02-28T15:07:04.148Z,95188.98
2019-02-28T15:09:32.124Z,95185.88
2019-02-28T15:11:59.981Z,95188.22
2019-02-28T15:14:27.686Z,95188.23
2019-02-28T15:16:55.500Z,95187.05
2019-02-28T15:19:24.371Z,95191.47
2019-02-28T15:21:52.444Z,95186.83
2019-02-28T15:24:20.208Z,95184.70
2019-02-28T15:26:47.910Z,95181.35
2019-02-28T15:29:15.469Z,95181.20
2019-02-28T15:31:44.275Z,95179.91
2019-02-28T15:34:12.220Z,95186.06
2019-02-28T15:36:39.822Z,95188.22
2019-02-28T15:39:07.375Z,95183.58
2019-02-28T15:41:35.355Z,95194.79
2019-02-28T15:44:03.344Z,95193.56
2019-02-28T15:46:31.054Z,95187.30
2019-02-28T15:48:59.035Z,95197.30
2019-02-28T15:51:29.393Z,95188.23
2019-02-28T15:53:56.830Z,95188.09
2019-02-28T15:56:24.673Z,95194.55
2019-02-28T15:58:52.570Z,95197.98
2019-02-28T16:01:21.669Z,95193.20
2019-02-28T16:03:51.322Z,95195.50
2019-02-28T16:06:20.428Z,95189.05
2019-02-28T16:08:48.583Z,95194.63
2019-02-28T16:11:17.077Z,95200.43
2019-02-28T16:13:45.052Z,95194.92
2019-02-28T16:16:13.157Z,95179.32
2019-02-28T16:18:44.045Z,95177.14
2019-02-28T16:21:11.093Z,95173.45
2019-02-28T16:23:39.060Z,95176.78
2019-02-28T16:26:07.080Z,95167.72
2019-02-28T16:28:35.051Z,95176.95
2019-02-28T16:31:06.280Z,95177.58
2019-02-28T16:33:33.283Z,95180.03
2019-02-28T16:36:02.482Z,95186.09
2019-02-28T16:38:30.511Z,95185.45
2019-02-28T16:41:00.839Z,95189.34
2019-02-28T16:43:28.598Z,95192.45
2019-02-28T16:45:57.457Z,95196.31
2019-02-28T16:48:25.473Z,95197.65
2019-02-28T16:50:56.941Z,95200.27
2019-02-28T16:53:25.117Z,95207.13
2019-02-28T16:55:53.152Z,95210.03
2019-02-28T16:58:21.839Z,95207.13
2019-02-28T17:00:50.815Z,95217.75
2019-02-28T17:03:18.853Z,95221.78
2019-02-28T17:05:46.922Z,95215.06
2019-02-28T17:08:15.605Z,95208.16
2019-02-28T17:10:45.112Z,95223.33
2019-02-28T17:13:30.900Z,95226.98
2019-02-28T17:16:21.303Z,95215.99
2019-02-28T17:18:49.451Z,95223.19
2019-02-28T17:21:18.164Z,95216.27
2019-02-28T17:23:46.250Z,95229.33
2019-02-28T17:26:14.481Z,95239.98
2019-02-28T17:28:51.048Z,95250.94
2019-02-28T17:31:44.549Z,95267.72
2019-02-28T17:34:16.711Z,95265.44
2019-02-28T17:36:47.681Z,95249.80
2019-02-28T17:39:15.929Z,95269.70
2019-02-28T17:41:43.818Z,95289.29
2019-02-28T17:44:45.236Z,95279.03
2019-02-28T17:48:09.649Z,95277.73
2019-02-28T17:51:07.803Z,95297.05
2019-02-28T17:54:07.378Z,95303.25
2019-02-28T17:56:57.799Z,95291.00
2019-02-28T18:00:00.558Z,95303.34
2019-02-28T18:02:59.971Z,95313.93
2019-02-28T18:05:57.953Z,95295.20
2019-02-28T18:08:37.600Z,95320.20
2019-02-28T18:11:40.397Z,95318.81
2019-02-28T18:14:21.282Z,95313.59
2019-02-28T18:17:04.177Z,95322.06
2019-02-28T18:20:19.276Z,95324.80
2019-02-28T18:23:21.287Z,95343.31
2019-02-28T18:26:38.560Z,95349.37
2019-02-28T18:29:40.073Z,95353.78
2019-02-28T18:32:08.261Z,95354.72
2019-02-28T18:34:36.933Z,95326.45
2019-02-28T18:37:05.950Z,95334.73
2019-02-28T18:39:34.099Z,95341.97
2019-02-28T18:42:02.171Z,95352.77
2019-02-28T18:44:30.291Z,95350.05
2019-02-28T18:47:02.949Z,95349.28
2019-02-28T18:49:30.176Z,95316.52
2019-02-28T18:51:59.829Z,95335.87
2019-02-28T18:54:28.961Z,95341.47
2019-02-28T18:56:57.052Z,95357.89
2019-02-28T18:59:25.295Z,95348.38
2019-02-28T19:01:53.833Z,95337.78
2019-02-28T19:04:21.892Z,95342.81
2019-02-28T19:06:51.046Z,95332.80
2019-02-28T19:09:20.985Z,95345.05
2019-02-28T19:11:49.239Z,95353.42
2019-02-28T19:14:17.677Z,95351.95
2019-02-28T19:16:46.995Z,95330.42
2019-02-28T19:19:15.251Z,95337.55
2019-02-28T19:21:43.342Z,95352.36
2019-02-28T19:24:14.024Z,95356.39
2019-02-28T19:26:42.078Z,95338.80
2019-02-28T19:29:10.554Z,95332.60
2019-02-28T19:31:38.734Z,95340.77
2019-02-28T19:34:09.620Z,95340.02
2019-02-28T19:36:37.758Z,95346.41
2019-02-28T19:39:07.151Z,95347.84
2019-02-28T19:41:37.788Z,95341.33
2019-02-28T19:44:06.023Z,95338.89
2019-02-28T19:46:34.040Z,95335.44
2019-02-28T19:49:02.131Z,95334.36
2019-02-28T19:51:30.229Z,95335.09
2019-02-28T19:53:58.332Z,95336.45
2019-02-28T19:56:26.418Z,95331.97
2019-02-28T19:58:54.880Z,95332.65
2019-02-28T20:01:23.320Z,95328.41
2019-02-28T20:03:51.343Z,95332.05
2019-02-28T20:06:19.642Z,95333.81
2019-02-28T20:08:48.020Z,95335.53
2019-02-28T20:11:16.690Z,95328.73
2019-02-28T20:13:44.947Z,95325.85
2019-02-28T20:16:13.263Z,95327.36
2019-02-28T20:18:42.499Z,95326.38
2019-02-28T20:21:10.856Z,95321.72
2019-02-28T20:23:38.916Z,95323.95
2019-02-28T20:26:07.055Z,95316.91
2019-02-28T20:28:35.108Z,95319.30
2019-02-28T20:31:03.462Z,95313.83
2019-02-28T20:33:31.722Z,95319.07
2019-02-28T20:35:59.765Z,95311.73
2019-02-28T20:38:27.980Z,95308.31
2019-02-28T20:40:56.102Z,95312.73
2019-02-28T20:43:24.242Z,95319.52
2019-02-28T20:45:52.332Z,95334.52
2019-02-28T20:48:20.610Z,95333.45
2019-02-28T20:50:48.898Z,95330.79
2019-02-28T20:53:17.544Z,95328.03
2019-02-28T20:55:45.713Z,95321.51
2019-02-28T20:58:15.941Z,95329.05
2019-02-28T21:00:43.958Z,95332.42
2019-02-28T21:03:12.045Z,95338.73
2019-02-28T21:05:40.196Z,95336.81
2019-02-28T21:08:08.235Z,95332.04
2019-02-28T21:10:36.293Z,95322.11
2019-02-28T21:13:04.606Z,95322.33
2019-02-28T21:15:32.710Z,95324.84
2019-02-28T21:18:00.813Z,95331.10
2019-02-28T21:20:29.070Z,95332.83
2019-02-28T21:22:57.122Z,95326.48
2019-02-28T21:25:25.260Z,95330.53
2019-02-28T21:27:53.307Z,95332.19
2019-02-28T21:30:21.726Z,95343.42
2019-02-28T21:32:49.736Z,95327.32
2019-02-28T21:35:18.054Z,95322.96
2019-02-28T21:37:46.352Z,95324.59
2019-02-28T21:40:15.378Z,95329.48
2019-02-28T21:42:43.335Z,95333.27
2019-02-28T21:45:13.571Z,95332.08
2019-02-28T21:47:41.612Z,95324.22
2019-02-28T21:50:11.306Z,95320.75
2019-02-28T21:52:39.306Z,95323.50
2019-02-28T21:55:08.622Z,95327.13
2019-02-28T21:57:36.476Z,95331.30
2019-02-28T22:00:06.813Z,95331.98
2019-02-28T22:02:34.388Z,95343.22
2019-02-28T22:05:02.188Z,95341.75
2019-02-28T22:07:29.679Z,95341.56
2019-02-28T22:09:57.277Z,95332.98
2019-02-28T22:12:24.834Z,95329.03
2019-02-28T22:14:52.497Z,95330.19
2019-02-28T22:17:20.022Z,95326.03
2019-02-28T22:19:47.634Z,95330.88
2019-02-28T22:22:15.102Z,95325.30
2019-02-28T22:24:42.665Z,95316.72
2019-02-28T22:27:10.256Z,95320.20
2019-02-28T22:29:37.831Z,95316.73
2019-02-28T22:32:24.115Z,95317.20
2019-02-28T22:35:10.128Z,95313.85
2019-02-28T22:37:37.613Z,95304.73
2019-02-28T22:40:05.334Z,95299.33
2019-02-28T22:42:32.849Z,95311.72
2019-02-28T22:45:00.395Z,95305.08
2019-02-28T22:47:27.955Z,95304.38
2019-02-28T22:49:55.470Z,95300.73
2019-02-28T22:52:24.738Z,95293.87
2019-02-28T22:54:52.370Z,95293.48
2019-02-28T22:57:19.982Z,95289.98
2019-02-28T22:59:47.516Z,95295.95
2019-02-28T23:02:15.033Z,95290.16
2019-02-28T23:04:42.616Z,95280.69
2019-02-28T23:07:10.213Z,95288.45
2019-02-28T23:09:37.750Z,95299.98
2019-02-28T23:12:05.249Z,95284.09
2019-02-28T23:14:32.850Z,95273.67
2019-02-28T23:17:00.310Z,95289.16
2019-02-28T23:19:27.879Z,95287.89
2019-02-28T23:21:55.393Z,95282.50
2019-02-28T23:24:22.924Z,95292.70
2019-02-28T23:27:09.795Z,95289.29
2019-02-28T23:29:38.339Z,95281.55
2019-02-28T23:32:28.395Z,95281.80
2019-02-28T23:34:56.492Z,95291.78
2019-02-28T23:37:24.050Z,95286.97
2019-02-28T23:39:51.580Z,95290.87
2019-02-28T23:42:19.043Z,95289.25
2019-02-28T23:44:46.502Z,95274.78
2019-02-28T23:47:13.965Z,95277.17
2019-02-28T23:49:41.550Z,95284.65
2019-02-28T23:52:09.042Z,95287.16
2019-02-28T23:54:36.624Z,95278.73
2019-02-28T23:57:04.116Z,95274.73
2019-02-28T23:59:31.610Z,95284.17
